Terminal Aerodrome Forecast
Issued by NWS

Current Version | Previous Version | Text Only | Print | Product List | Glossary Off
Versions: 1 2 3 4 5 6 7 8 9 10 11 12 13 14 15 16 17 18

542
FTUS41 KILN 150336 AAA
TAFLCK
TAF AMD
KLCK 150336Z 1504/1524 34003KT P6SM OVC170
     FM151300 23011KT P6SM BKN035
     FM151800 25014G23KT P6SM BKN035
     FM152300 26011KT P6SM BKN050=

USA.gov is the U.S. government's official web portal to all federal, state and local government web resources and services.